Terminal Aerodrome Forecast
Issued by NWS

Home | Current Version | Previous Version | Text Only | Print | Product List | Glossary On
Versions: 1 2 3 4 5 6 7 8 9 10 11 12 13 14 15 16 17 18 19 20 21 22 23 24 25 26 27 28 29 30 31 32
000
FTPQ31 PGUM 050302 AAC
TAFGUM
TAF AMD

TAF AMD
PGSN 050302Z 0503/0524 12015G22KT P6SM VCSH SCT016 BKN040 OVC120
      TEMPO 0503/0506 15012G30KT 5SM SHRA BKN014 BKN025
     FM050600 15012G20KT P6SM -SHRA SCT012 BKN030 OVC100=

USA.gov is the U.S. government's official web portal to all federal, state and local government web resources and services.